Time;durP1;ratioP1;P1;durP2;ratioP2;P2;SDS_P1;SDS_P2;PMS_P1;PMS_P2;Temp;Humidity;BMP_temperature;BMP_pressure;BME280_temperature;BME280_humidity;BME280_pressure;Samples;Min_cycle;Max_cycle;Signal;HPM_P1;HPM_P2
2024/02/06 00:00:20;;;;;;;2.60;1.77;;;8.30;99.90;;;;;;5033920;28;20197;-80
2024/02/06 00:02:49;;;;;;;1.88;1.45;;;8.30;99.90;;;;;;5032639;28;20215;-78
2024/02/06 00:05:16;;;;;;;4.43;2.78;;;8.30;99.90;;;;;;5032950;28;20243;-79
2024/02/06 00:07:43;;;;;;;2.95;2.65;;;8.30;99.90;;;;;;5033545;28;20218;-77
2024/02/06 00:10:10;;;;;;;3.65;3.30;;;8.40;99.90;;;;;;5032265;28;20192;-78
2024/02/06 00:12:37;;;;;;;3.72;2.63;;;8.40;99.90;;;;;;5031306;28;20269;-79
2024/02/06 00:15:05;;;;;;;3.90;0.70;;;8.30;99.90;;;;;;5033119;28;20208;-79
2024/02/06 00:17:32;;;;;;;3.03;2.83;;;8.40;99.90;;;;;;5035101;28;20434;-77
2024/02/06 00:20:01;;;;;;;1.63;1.52;;;8.40;99.90;;;;;;5044026;28;20203;-80
2024/02/06 00:22:28;;;;;;;6.47;4.28;;;8.40;99.90;;;;;;5036765;28;20629;-79
2024/02/06 00:24:55;;;;;;;6.60;3.65;;;8.40;99.90;;;;;;5038597;28;20289;-79
2024/02/06 00:27:22;;;;;;;3.65;2.97;;;8.40;99.90;;;;;;5034407;28;20214;-77
2024/02/06 00:29:51;;;;;;;5.93;2.78;;;8.40;99.90;;;;;;5040147;28;20610;-78
2024/02/06 00:32:19;;;;;;;1.50;1.40;;;8.40;99.90;;;;;;5032851;28;20227;-78
2024/02/06 00:34:45;;;;;;;3.40;1.48;;;8.50;99.90;;;;;;5039055;28;20686;-78
2024/02/06 00:37:14;;;;;;;1.50;1.40;;;8.50;99.90;;;;;;5037105;28;20191;-80
2024/02/06 00:39:40;;;;;;;4.60;3.63;;;8.50;99.90;;;;;;5044794;28;20199;-80
2024/02/06 00:42:07;;;;;;;1.77;1.60;;;8.50;99.90;;;;;;5036706;28;20216;-77
2024/02/06 00:44:34;;;;;;;10.55;3.97;;;8.50;99.90;;;;;;5031732;28;20226;-79
2024/02/06 00:47:01;;;;;;;1.20;1.10;;;8.50;99.90;;;;;;5035925;28;20220;-79
2024/02/06 00:49:28;;;;;;;31.00;4.00;;;8.60;99.90;;;;;;5035198;28;20206;-80
2024/02/06 00:51:55;;;;;;;2.22;2.13;;;8.50;99.90;;;;;;5035322;28;20215;-79
2024/02/06 00:54:23;;;;;;;2.50;1.90;;;8.60;99.90;;;;;;5034245;28;20195;-79
2024/02/06 00:56:49;;;;;;;2.83;1.77;;;8.60;99.90;;;;;;5035285;28;20199;-79
2024/02/06 00:59:16;;;;;;;1.80;1.10;;;8.60;99.90;;;;;;5034910;28;20290;-79
2024/02/06 01:01:43;;;;;;;2.95;1.10;;;8.70;99.90;;;;;;5034810;28;20594;-79
2024/02/06 01:04:10;;;;;;;0.50;0.50;;;8.70;99.90;;;;;;5034120;28;20196;-80
2024/02/06 01:06:37;;;;;;;0.95;0.73;;;8.70;99.90;;;;;;5034855;28;20219;-80
2024/02/06 01:09:04;;;;;;;6.18;1.55;;;8.70;99.90;;;;;;5032097;28;20203;-79
2024/02/06 01:11:32;;;;;;;1.10;1.10;;;8.70;99.90;;;;;;5033527;28;20679;-76
2024/02/06 01:13:59;;;;;;;3.95;3.55;;;8.70;99.90;;;;;;5032793;28;20287;-78
2024/02/06 01:16:26;;;;;;;2.72;2.50;;;8.70;99.90;;;;;;5035013;28;20278;-79
2024/02/06 01:18:53;;;;;;;1.80;1.55;;;8.80;99.90;;;;;;5038336;28;20206;-78
2024/02/06 01:21:19;;;;;;;4.05;3.50;;;8.80;99.90;;;;;;5033529;28;20223;-80
2024/02/06 01:23:46;;;;;;;3.28;3.10;;;8.80;99.90;;;;;;5034659;28;20204;-80
2024/02/06 01:26:14;;;;;;;2.97;2.75;;;8.80;99.90;;;;;;5034579;28;20210;-80
2024/02/06 01:28:42;;;;;;;17.13;3.13;;;8.90;99.90;;;;;;5033373;28;20709;-80
2024/02/06 01:31:11;;;;;;;4.65;2.22;;;8.90;99.90;;;;;;5035218;28;20593;-79
2024/02/06 01:33:37;;;;;;;11.43;2.05;;;8.90;99.90;;;;;;5035971;28;20626;-79
2024/02/06 01:36:05;;;;;;;1.73;1.55;;;8.90;99.90;;;;;;5035907;28;20214;-79
2024/02/06 01:38:32;;;;;;;3.15;2.90;;;8.90;99.90;;;;;;5036005;28;20279;-80
2024/02/06 01:40:58;;;;;;;0.75;0.75;;;9.00;99.90;;;;;;5035865;28;20296;-80
2024/02/06 01:43:25;;;;;;;1.15;1.05;;;9.00;99.90;;;;;;5035947;28;20286;-79
2024/02/06 01:45:54;;;;;;;0.50;0.50;;;9.00;99.90;;;;;;5035980;28;20262;-78
2024/02/06 01:48:22;;;;;;;2.22;2.13;;;9.00;99.90;;;;;;5035154;28;20728;-80
2024/02/06 01:50:50;;;;;;;1.48;1.38;;;9.10;99.90;;;;;;5035527;28;20635;-81
2024/02/06 01:53:18;;;;;;;2.78;2.00;;;9.10;99.90;;;;;;5034945;28;20206;-79
2024/02/06 01:55:45;;;;;;;13.18;1.85;;;9.10;99.90;;;;;;5036119;28;20203;-79
2024/02/06 01:58:13;;;;;;;1.95;1.85;;;9.10;99.90;;;;;;5035775;28;20283;-80
2024/02/06 02:00:40;;;;;;;3.73;3.53;;;9.10;99.90;;;;;;5035747;28;20681;-80
2024/02/06 02:03:09;;;;;;;2.85;1.73;;;9.10;99.90;;;;;;5034452;28;20515;-79
2024/02/06 02:05:38;;;;;;;1.90;1.80;;;9.20;99.90;;;;;;5035809;28;20287;-79
2024/02/06 02:08:05;;;;;;;2.25;2.15;;;9.20;99.90;;;;;;5035708;28;20478;-79
2024/02/06 02:10:32;;;;;;;3.15;2.55;;;9.20;99.90;;;;;;5027463;28;20195;-80
2024/02/06 02:12:59;;;;;;;0.85;0.85;;;9.20;99.90;;;;;;5034948;28;20231;-79
2024/02/06 02:15:26;;;;;;;0.98;0.93;;;9.20;99.90;;;;;;5034519;28;20206;-78
2024/02/06 02:17:53;;;;;;;2.83;1.87;;;9.20;99.90;;;;;;5035369;28;20192;-79
2024/02/06 02:20:21;;;;;;;4.50;1.70;;;9.30;99.90;;;;;;5035041;28;20448;-80
2024/02/06 02:22:49;;;;;;;4.22;2.58;;;9.30;99.90;;;;;;5034532;28;20462;-77
2024/02/06 02:25:17;;;;;;;0.82;0.70;;;9.20;99.90;;;;;;5034458;28;20203;-80
2024/02/06 02:27:44;;;;;;;3.90;0.90;;;9.30;99.90;;;;;;5035514;28;20283;-80
2024/02/06 02:30:13;;;;;;;3.35;3.03;;;9.30;99.90;;;;;;5034923;28;20233;-80
2024/02/06 02:32:41;;;;;;;9.07;1.67;;;9.30;99.90;;;;;;5034114;28;20216;-80
2024/02/06 02:35:11;;;;;;;1.48;1.38;;;9.30;99.90;;;;;;5034455;28;20567;-80
2024/02/06 02:37:38;;;;;;;2.55;1.50;;;9.30;99.90;;;;;;5032637;28;20566;-79
2024/02/06 02:40:08;;;;;;;10.57;2.13;;;9.30;99.90;;;;;;5034370;28;20214;-80
2024/02/06 02:42:35;;;;;;;0.50;0.40;;;9.30;99.90;;;;;;5035497;28;20222;-79
2024/02/06 02:45:02;;;;;;;2.53;1.80;;;9.30;99.90;;;;;;5035602;28;20693;-80
2024/02/06 02:47:28;;;;;;;2.65;1.98;;;9.30;99.90;;;;;;5035245;28;20585;-80
2024/02/06 02:49:55;;;;;;;1.92;1.50;;;9.30;99.90;;;;;;5035565;28;20715;-80
2024/02/06 02:52:22;;;;;;;1.85;1.75;;;9.30;99.90;;;;;;5034374;28;20952;-81
2024/02/06 02:54:49;;;;;;;2.97;2.43;;;9.30;99.90;;;;;;5035101;28;20200;-80
2024/02/06 02:57:17;;;;;;;1.95;1.42;;;9.30;99.90;;;;;;5034745;28;20443;-79
2024/02/06 02:59:44;;;;;;;3.40;2.25;;;9.30;99.90;;;;;;5034970;28;20206;-80
2024/02/06 03:02:10;;;;;;;8.13;1.23;;;9.30;99.90;;;;;;5033757;28;20232;-81
2024/02/06 03:04:37;;;;;;;1.13;0.90;;;9.30;99.90;;;;;;5027815;28;20512;-79
2024/02/06 03:07:04;;;;;;;8.77;5.35;;;9.30;99.90;;;;;;5035428;28;20582;-79
2024/02/06 03:09:31;;;;;;;0.70;0.70;;;9.30;99.90;;;;;;5035256;28;20221;-80
2024/02/06 03:11:58;;;;;;;1.17;1.08;;;9.30;99.90;;;;;;5035491;28;20225;-80
2024/02/06 03:14:26;;;;;;;6.75;1.85;;;9.30;99.90;;;;;;5034305;28;20695;-80
2024/02/06 03:16:53;;;;;;;0.50;0.40;;;9.30;99.90;;;;;;5035173;28;20214;-79
2024/02/06 03:19:20;;;;;;;2.13;1.98;;;9.30;99.90;;;;;;5034417;28;20198;-79
2024/02/06 03:21:47;;;;;;;1.65;1.55;;;9.30;99.90;;;;;;5034714;28;20227;-77
2024/02/06 03:24:14;;;;;;;0.80;0.70;;;9.30;99.90;;;;;;5035299;28;20421;-79
2024/02/06 03:26:41;;;;;;;0.85;0.70;;;9.30;99.90;;;;;;5035700;28;20196;-80
2024/02/06 03:29:08;;;;;;;4.07;1.10;;;9.40;99.90;;;;;;5034815;28;20568;-80
2024/02/06 03:31:36;;;;;;;1.38;1.27;;;9.30;99.90;;;;;;5033087;28;20479;-80
2024/02/06 03:34:03;;;;;;;0.77;0.77;;;9.30;99.90;;;;;;5034915;28;20199;-78
2024/02/06 03:36:29;;;;;;;2.77;2.03;;;9.30;99.90;;;;;;5034495;28;20203;-79
2024/02/06 03:38:56;;;;;;;1.27;0.70;;;9.30;99.90;;;;;;5035051;28;20438;-80
2024/02/06 03:41:23;;;;;;;2.20;1.87;;;9.40;99.90;;;;;;5035098;28;20737;-79
2024/02/06 03:43:50;;;;;;;0.82;0.77;;;9.40;99.90;;;;;;5034107;28;20442;-77
2024/02/06 03:46:16;;;;;;;1.55;1.45;;;9.40;99.90;;;;;;5033797;28;20203;-79
2024/02/06 03:48:44;;;;;;;9.18;4.03;;;9.40;99.90;;;;;;5033771;28;20211;-80
2024/02/06 03:51:11;;;;;;;0.80;0.80;;;9.40;99.90;;;;;;5035471;28;20216;-79
2024/02/06 03:53:38;;;;;;;2.88;1.35;;;9.40;99.90;;;;;;5037134;28;20202;-80
2024/02/06 03:56:06;;;;;;;2.97;0.98;;;9.40;99.90;;;;;;5038202;28;20200;-79
2024/02/06 03:58:32;;;;;;;2.63;2.40;;;9.40;99.90;;;;;;5037691;28;20202;-79
2024/02/06 04:00:59;;;;;;;1.90;1.25;;;9.40;99.90;;;;;;5037906;28;20513;-79
2024/02/06 04:03:26;;;;;;;6.13;2.20;;;9.50;99.90;;;;;;5036500;28;20253;-80
2024/02/06 04:05:55;;;;;;;0.98;0.88;;;9.40;99.90;;;;;;5038444;28;20218;-76
2024/02/06 04:08:22;;;;;;;1.57;1.47;;;9.40;99.90;;;;;;5037409;28;20224;-80
2024/02/06 04:10:49;;;;;;;2.10;1.90;;;9.40;99.90;;;;;;5038129;28;20451;-77
2024/02/06 04:13:16;;;;;;;5.70;2.95;;;9.40;99.90;;;;;;5037656;28;20534;-81
2024/02/06 04:15:43;;;;;;;4.63;2.33;;;9.40;99.90;;;;;;5036637;28;20200;-80
2024/02/06 04:18:09;;;;;;;0.50;0.50;;;9.40;99.90;;;;;;5037865;28;20195;-80
2024/02/06 04:20:36;;;;;;;1.70;1.60;;;9.40;99.90;;;;;;5037156;28;20442;-79
2024/02/06 04:23:05;;;;;;;4.20;0.93;;;9.40;99.90;;;;;;5037026;28;20473;-80
2024/02/06 04:25:32;;;;;;;6.68;3.55;;;9.40;99.90;;;;;;5037667;28;20450;-79
2024/02/06 04:27:59;;;;;;;0.90;0.73;;;9.50;99.90;;;;;;5034061;28;20218;-81
2024/02/06 04:30:26;;;;;;;1.60;1.48;;;9.50;99.90;;;;;;5036953;28;20203;-80
2024/02/06 04:32:53;;;;;;;1.45;1.23;;;9.40;99.90;;;;;;5037033;28;20216;-80
2024/02/06 04:35:20;;;;;;;1.00;0.98;;;9.40;99.90;;;;;;5038059;28;20203;-79
2024/02/06 04:37:47;;;;;;;4.47;2.13;;;9.40;99.90;;;;;;5029696;28;20205;-80
2024/02/06 04:40:15;;;;;;;2.08;1.88;;;9.40;99.90;;;;;;5038055;28;20263;-80
2024/02/06 04:42:42;;;;;;;7.43;1.52;;;9.40;99.90;;;;;;5037930;28;20219;-80
2024/02/06 04:45:10;;;;;;;3.75;1.50;;;9.40;99.90;;;;;;5039532;28;20196;-80
2024/02/06 04:47:36;;;;;;;1.35;1.25;;;9.40;99.90;;;;;;5037805;28;20290;-79
2024/02/06 04:50:05;;;;;;;0.50;0.50;;;9.40;99.90;;;;;;5036897;28;20678;-79
2024/02/06 04:52:32;;;;;;;3.35;1.45;;;9.40;99.90;;;;;;5036205;28;20220;-80
2024/02/06 04:54:59;;;;;;;1.20;1.10;;;9.40;99.90;;;;;;5037135;28;20250;-79
2024/02/06 04:57:27;;;;;;;0.50;0.50;;;9.40;99.90;;;;;;5036976;28;20579;-79
2024/02/06 04:59:53;;;;;;;0.50;0.50;;;9.40;99.90;;;;;;5037488;28;20449;-79
2024/02/06 05:02:20;;;;;;;4.13;1.80;;;9.40;99.90;;;;;;5036079;28;20476;-80
2024/02/06 05:04:47;;;;;;;1.20;0.90;;;9.40;99.90;;;;;;5036069;28;20454;-80
2024/02/06 05:07:15;;;;;;;12.85;3.30;;;9.40;99.90;;;;;;5036645;28;20537;-80
2024/02/06 05:09:42;;;;;;;1.58;1.13;;;9.40;99.90;;;;;;5036693;28;20216;-80
2024/02/06 05:12:09;;;;;;;0.60;0.60;;;9.40;99.90;;;;;;5035782;28;20276;-78
2024/02/06 05:14:38;;;;;;;5.38;1.58;;;9.40;99.90;;;;;;5036520;28;20200;-79
2024/02/06 05:17:04;;;;;;;2.35;1.30;;;9.40;99.90;;;;;;5036961;28;20658;-79
2024/02/06 05:19:31;;;;;;;1.50;0.93;;;9.40;99.90;;;;;;5035967;28;20184;-80
2024/02/06 05:21:59;;;;;;;6.03;3.80;;;9.40;99.90;;;;;;5036199;28;20226;-80
2024/02/06 05:24:26;;;;;;;0.90;0.60;;;9.50;99.90;;;;;;5035128;28;20481;-79
2024/02/06 05:26:53;;;;;;;1.88;1.77;;;9.40;99.90;;;;;;5036764;28;20452;-80
2024/02/06 05:29:20;;;;;;;1.05;1.00;;;9.40;99.90;;;;;;5037164;28;20215;-80
2024/02/06 05:31:49;;;;;;;1.10;1.10;;;9.30;99.90;;;;;;5036790;28;20302;-80
2024/02/06 05:34:15;;;;;;;2.28;2.08;;;9.30;99.90;;;;;;5037415;28;20271;-79
2024/02/06 05:36:42;;;;;;;12.10;2.65;;;9.30;99.90;;;;;;5037228;28;20242;-80
2024/02/06 05:39:09;;;;;;;2.08;1.80;;;9.30;99.90;;;;;;5037489;28;20202;-80
2024/02/06 05:41:36;;;;;;;1.85;1.30;;;9.30;99.90;;;;;;5036834;28;20310;-80
2024/02/06 05:44:03;;;;;;;0.50;0.50;;;9.30;99.90;;;;;;5037114;28;20196;-80
2024/02/06 05:46:30;;;;;;;0.60;0.50;;;9.30;99.90;;;;;;5036377;28;20726;-80
2024/02/06 05:48:59;;;;;;;1.33;0.90;;;9.30;99.90;;;;;;5036645;28;20326;-79
2024/02/06 05:51:25;;;;;;;1.90;1.80;;;9.30;99.90;;;;;;5035986;28;20494;-80
2024/02/06 05:53:52;;;;;;;4.13;1.15;;;9.30;99.90;;;;;;5028661;28;20196;-77
2024/02/06 05:56:19;;;;;;;2.53;2.33;;;9.40;99.90;;;;;;5036851;28;20195;-80
2024/02/06 05:58:46;;;;;;;1.40;1.15;;;9.40;99.90;;;;;;5037171;28;20196;-80
2024/02/06 06:01:13;;;;;;;1.10;1.02;;;9.40;99.90;;;;;;5036874;28;20227;-79
2024/02/06 06:03:39;;;;;;;1.13;1.13;;;9.40;99.90;;;;;;5036914;28;20210;-81
2024/02/06 06:06:08;;;;;;;1.33;1.15;;;9.50;99.90;;;;;;5036914;28;20567;-80
2024/02/06 06:08:35;;;;;;;14.20;3.90;;;9.50;99.90;;;;;;5035788;28;20220;-79
2024/02/06 06:11:03;;;;;;;0.82;0.82;;;9.40;99.90;;;;;;5033411;28;20215;-80
2024/02/06 06:13:30;;;;;;;4.30;2.00;;;9.40;99.90;;;;;;5030992;28;20202;-79
2024/02/06 06:15:57;;;;;;;3.20;1.92;;;9.40;99.90;;;;;;5031784;28;20281;-78
2024/02/06 06:18:24;;;;;;;1.75;1.60;;;9.40;99.90;;;;;;5031688;28;20222;-78
2024/02/06 06:20:51;;;;;;;1.63;1.52;;;9.40;99.90;;;;;;5035073;28;20223;-82
2024/02/06 06:23:19;;;;;;;1.73;1.63;;;9.40;99.90;;;;;;5032718;28;20813;-79
2024/02/06 06:25:46;;;;;;;4.00;2.20;;;9.40;99.90;;;;;;5033099;28;20442;-78
2024/02/06 06:28:13;;;;;;;8.80;3.33;;;9.40;99.90;;;;;;5034901;28;20677;-82
2024/02/06 06:30:40;;;;;;;17.17;3.10;;;9.40;99.90;;;;;;5034479;28;20457;-79
2024/02/06 06:33:07;;;;;;;4.43;2.30;;;9.40;99.90;;;;;;5031903;28;20506;-79
2024/02/06 06:35:33;;;;;;;2.40;1.30;;;9.30;99.90;;;;;;5029525;28;20458;-77
2024/02/06 06:38:00;;;;;;;5.60;1.80;;;9.40;99.90;;;;;;5034271;28;20199;-80
2024/02/06 06:40:28;;;;;;;2.20;1.47;;;9.40;99.90;;;;;;5026376;28;20983;-78
2024/02/06 06:42:55;;;;;;;2.60;1.40;;;9.40;99.90;;;;;;5035244;28;20458;-80
2024/02/06 06:45:22;;;;;;;2.53;0.97;;;9.40;99.90;;;;;;5036261;28;20447;-81
2024/02/06 06:47:48;;;;;;;4.50;2.13;;;9.40;99.90;;;;;;5025186;28;20462;-81
2024/02/06 06:50:15;;;;;;;4.33;1.83;;;9.40;99.90;;;;;;5025107;28;20485;-78
2024/02/06 06:52:42;;;;;;;2.90;1.77;;;9.40;99.90;;;;;;5024151;28;20486;-80
2024/02/06 06:55:10;;;;;;;8.37;2.73;;;9.40;99.90;;;;;;5030940;28;21273;-79
2024/02/06 06:57:42;;;;;;;2.97;2.40;;;9.40;99.90;;;;;;5031056;28;20561;-80
2024/02/06 07:00:11;;;;;;;2.83;2.60;;;9.50;99.90;;;;;;5035172;28;20437;-80
2024/02/06 07:02:38;;;;;;;3.80;2.28;;;9.50;99.90;;;;;;5033742;28;20477;-80
2024/02/06 07:05:07;;;;;;;6.38;2.22;;;9.50;99.90;;;;;;5030385;28;20299;-79
2024/02/06 07:07:34;;;;;;;0.70;0.70;;;9.50;99.90;;;;;;5022656;28;20196;-78
2024/02/06 07:10:01;;;;;;;1.77;1.53;;;9.50;99.90;;;;;;5027114;22;20614;-79
2024/02/06 07:12:27;;;;;;;3.73;1.90;;;9.50;99.90;;;;;;5007289;28;20805;-84
2024/02/06 07:14:55;;;;;;;3.87;3.13;;;9.50;99.90;;;;;;5014943;28;20454;-84
2024/02/06 07:17:22;;;;;;;8.63;3.50;;;9.50;99.90;;;;;;5002833;28;20667;-84
2024/02/06 07:19:49;;;;;;;1.43;1.33;;;9.50;99.90;;;;;;4993551;28;20513;-83
2024/02/06 07:22:15;;;;;;;1.80;1.70;;;9.50;99.90;;;;;;4996140;28;21218;-83
2024/02/06 07:24:42;;;;;;;2.07;1.77;;;9.50;99.90;;;;;;4993261;28;20849;-84
2024/02/06 07:27:09;;;;;;;2.63;2.10;;;9.50;99.90;;;;;;4994310;28;20474;-84
2024/02/06 07:29:36;;;;;;;1.00;0.93;;;9.50;99.90;;;;;;5001468;28;20475;-83
2024/02/06 07:32:05;;;;;;;3.23;2.07;;;9.50;99.90;;;;;;5009674;28;20444;-82
2024/02/06 07:34:32;;;;;;;3.13;1.30;;;9.50;99.90;;;;;;5012151;28;20428;-84
2024/02/06 07:36:59;;;;;;;1.63;1.53;;;9.50;99.90;;;;;;5007113;28;20543;-84
2024/02/06 07:39:26;;;;;;;2.43;2.20;;;9.50;99.90;;;;;;4999113;28;20471;-84
2024/02/06 07:41:54;;;;;;;3.43;1.63;;;9.50;99.90;;;;;;4993458;28;20480;-84
2024/02/06 07:44:21;;;;;;;2.13;1.40;;;9.50;99.90;;;;;;4993958;28;20460;-82
2024/02/06 07:46:48;;;;;;;2.42;1.65;;;9.50;99.90;;;;;;4997480;28;20951;-81
2024/02/06 07:49:17;;;;;;;1.07;1.00;;;9.50;99.90;;;;;;4994472;28;20592;-83
2024/02/06 07:51:44;;;;;;;4.53;3.80;;;9.50;99.90;;;;;;4998324;28;20471;-83
2024/02/06 07:54:11;;;;;;;1.23;1.00;;;9.60;99.90;;;;;;4995766;28;20887;-82
2024/02/06 07:56:39;;;;;;;13.30;3.67;;;9.60;99.90;;;;;;4991904;28;20466;-84
2024/02/06 07:59:05;;;;;;;2.53;2.20;;;9.60;99.90;;;;;;4996461;28;21006;-83
2024/02/06 08:01:32;;;;;;;2.50;2.30;;;9.60;99.90;;;;;;4990013;28;20830;-82
2024/02/06 08:03:59;;;;;;;3.65;2.38;;;9.60;99.90;;;;;;4994012;28;20456;-82
2024/02/06 08:06:27;;;;;;;2.20;1.77;;;9.60;99.90;;;;;;4992157;28;20227;-83
2024/02/06 08:08:54;;;;;;;2.67;2.10;;;9.70;99.90;;;;;;4998643;28;20928;-82
2024/02/06 08:11:22;;;;;;;2.93;2.73;;;9.70;99.90;;;;;;4995761;28;20464;-84
2024/02/06 08:13:49;;;;;;;0.73;0.70;;;9.70;99.90;;;;;;5004997;28;20459;-83
2024/02/06 08:16:17;;;;;;;6.23;3.57;;;9.70;99.90;;;;;;4990698;28;20831;-82
2024/02/06 08:18:44;;;;;;;1.13;0.87;;;9.60;99.90;;;;;;4995768;28;20463;-82
2024/02/06 08:21:11;;;;;;;2.20;2.00;;;9.60;99.90;;;;;;4997190;28;20512;-82
2024/02/06 08:23:39;;;;;;;2.03;1.93;;;9.70;99.90;;;;;;4999100;28;20456;-82
2024/02/06 08:26:06;;;;;;;23.02;1.55;;;9.70;99.90;;;;;;4994925;28;20527;-83
2024/02/06 08:28:34;;;;;;;3.60;2.37;;;9.70;99.90;;;;;;4996646;28;20221;-81
2024/02/06 08:31:00;;;;;;;4.45;1.85;;;9.80;99.90;;;;;;4994419;28;20525;-83
2024/02/06 08:33:27;;;;;;;1.63;1.13;;;9.80;99.90;;;;;;4997009;28;20224;-82
2024/02/06 08:35:54;;;;;;;1.10;1.10;;;9.90;99.90;;;;;;4998375;28;20989;-84
2024/02/06 08:38:21;;;;;;;2.55;2.28;;;9.90;99.90;;;;;;4994016;28;20205;-82
2024/02/06 08:40:49;;;;;;;2.72;1.33;;;9.90;99.90;;;;;;4997477;28;20234;-83
2024/02/06 08:43:16;;;;;;;1.53;1.03;;;9.90;99.90;;;;;;4998241;28;20207;-83
2024/02/06 08:45:43;;;;;;;8.47;3.53;;;10.00;99.90;;;;;;4997836;28;20471;-83
2024/02/06 08:48:09;;;;;;;1.57;1.47;;;10.00;99.90;;;;;;4990351;28;20448;-81
2024/02/06 08:50:36;;;;;;;5.23;2.70;;;10.00;99.90;;;;;;4997290;28;20480;-83
2024/02/06 08:53:03;;;;;;;1.43;1.33;;;10.00;99.90;;;;;;4997616;28;20519;-88
2024/02/06 08:55:30;;;;;;;1.80;1.33;;;10.00;99.90;;;;;;4999344;28;20445;-85
2024/02/06 08:57:58;;;;;;;1.63;1.10;;;10.00;99.90;;;;;;4998323;28;20531;-84
2024/02/06 09:00:26;;;;;;;1.05;0.95;;;10.00;99.90;;;;;;4997283;28;20477;-87
2024/02/06 09:02:53;;;;;;;10.33;2.20;;;10.10;99.90;;;;;;4994974;28;20201;-85
2024/02/06 09:05:20;;;;;;;3.40;1.77;;;10.10;99.90;;;;;;5001545;28;20468;-82
2024/02/06 09:07:46;;;;;;;2.70;2.37;;;10.10;99.90;;;;;;4999023;28;20550;-86
2024/02/06 09:10:13;;;;;;;1.70;1.60;;;10.10;99.90;;;;;;4996815;28;20494;-85
2024/02/06 09:12:40;;;;;;;1.30;0.90;;;10.10;99.90;;;;;;4998641;28;20452;-82
2024/02/06 09:15:09;;;;;;;6.13;4.23;;;10.10;99.90;;;;;;4996539;28;20443;-82
2024/02/06 09:17:37;;;;;;;3.27;1.83;;;10.10;99.90;;;;;;4995695;28;20524;-81
2024/02/06 09:20:05;;;;;;;1.63;1.53;;;10.10;99.90;;;;;;4997451;28;20511;-84
2024/02/06 09:22:32;;;;;;;2.53;2.20;;;10.20;99.90;;;;;;4997059;28;20808;-84
2024/02/06 09:24:59;;;;;;;1.93;1.47;;;10.20;99.90;;;;;;4995871;28;20636;-83
2024/02/06 09:27:26;;;;;;;2.70;1.63;;;10.20;99.90;;;;;;4998491;28;20441;-81
2024/02/06 09:29:53;;;;;;;8.50;1.63;;;10.20;99.90;;;;;;5001485;28;20502;-82
2024/02/06 09:32:21;;;;;;;1.47;1.30;;;10.20;99.90;;;;;;5003100;28;20436;-82
2024/02/06 09:34:47;;;;;;;1.20;1.10;;;10.20;99.90;;;;;;5006222;28;20432;-79
2024/02/06 09:37:14;;;;;;;0.70;0.60;;;10.20;99.90;;;;;;5014999;28;20547;-78
2024/02/06 09:39:42;;;;;;;1.97;1.77;;;10.10;99.90;;;;;;5020191;28;20568;-79
2024/02/06 09:42:09;;;;;;;1.30;1.20;;;9.90;99.90;;;;;;5014267;28;20459;-80
2024/02/06 09:44:36;;;;;;;4.23;2.43;;;9.80;99.90;;;;;;5014131;28;20451;-79
2024/02/06 09:47:04;;;;;;;33.37;3.60;;;9.70;99.90;;;;;;5011211;28;20475;-78
2024/02/06 09:49:33;;;;;;;3.57;3.27;;;9.60;99.90;;;;;;5009169;28;20512;-78
2024/02/06 09:52:02;;;;;;;2.20;2.05;;;9.50;99.90;;;;;;5002786;28;20448;-80
2024/02/06 09:54:32;;;;;;;7.63;2.40;;;9.40;99.90;;;;;;5004428;28;20240;-79
2024/02/06 09:56:59;;;;;;;15.90;2.90;;;9.40;99.90;;;;;;5000467;28;20244;-80
2024/02/06 09:59:28;;;;;;;2.43;2.23;;;9.40;99.90;;;;;;5001780;28;20284;-80
2024/02/06 10:01:55;;;;;;;15.25;2.50;;;9.30;99.90;;;;;;5004591;28;20440;-81
2024/02/06 10:04:28;;;;;;;6.35;3.55;;;9.30;99.90;;;;;;5004768;28;20224;-78
2024/02/06 10:06:57;;;;;;;4.13;2.67;;;9.30;99.90;;;;;;5000975;28;20580;-81
2024/02/06 10:09:26;;;;;;;2.80;2.55;;;9.30;99.90;;;;;;4994883;28;20244;-81
2024/02/06 10:11:56;;;;;;;12.40;6.83;;;9.40;99.90;;;;;;4987800;28;20293;-80
2024/02/06 10:14:23;;;;;;;2.43;1.63;;;9.40;99.90;;;;;;4996184;28;20835;-83
2024/02/06 10:16:50;;;;;;;6.77;5.30;;;9.40;99.90;;;;;;5001896;28;20580;-84
2024/02/06 10:19:17;;;;;;;4.35;3.53;;;9.50;99.90;;;;;;5005329;28;20471;-84
2024/02/06 10:21:46;;;;;;;3.17;2.83;;;9.60;99.90;;;;;;5004377;28;20247;-83
2024/02/06 10:24:19;;;;;;;3.83;2.00;;;9.70;99.90;;;;;;5001481;28;20293;-85
2024/02/06 10:26:47;;;;;;;2.15;1.95;;;9.70;99.90;;;;;;5002821;28;20236;-84
2024/02/06 10:29:17;;;;;;;2.80;2.00;;;9.80;99.90;;;;;;4997980;28;20228;-83
2024/02/06 10:31:44;;;;;;;2.03;1.90;;;9.80;99.90;;;;;;4995715;28;20530;-82
2024/02/06 10:34:12;;;;;;;6.40;3.00;;;9.70;99.90;;;;;;4982903;28;20501;-82
2024/02/06 10:36:39;;;;;;;3.88;2.45;;;9.60;99.90;;;;;;4999559;28;20538;-83
2024/02/06 10:39:08;;;;;;;2.40;1.60;;;9.60;99.90;;;;;;4998522;28;20289;-83
2024/02/06 10:41:36;;;;;;;2.57;2.37;;;9.60;99.90;;;;;;4996467;28;20452;-82
2024/02/06 10:44:11;;;;;;;29.97;1.80;;;9.60;99.90;;;;;;4997702;28;20452;-83
2024/02/06 10:46:38;;;;;;;1.08;1.08;;;9.60;99.90;;;;;;4996873;28;20447;-82
2024/02/06 10:49:06;;;;;;;3.80;2.40;;;9.60;99.90;;;;;;4997160;28;20837;-83
2024/02/06 10:51:33;;;;;;;8.57;1.80;;;9.60;99.90;;;;;;4993084;28;20474;-81
2024/02/06 10:54:00;;;;;;;2.40;1.80;;;9.60;99.90;;;;;;4993837;28;20456;-83
2024/02/06 10:56:30;;;;;;;2.15;1.20;;;9.70;99.90;;;;;;4999192;28;20451;-83
2024/02/06 10:58:59;;;;;;;17.87;3.10;;;9.70;99.90;;;;;;4997735;28;20308;-81
2024/02/06 11:01:34;;;;;;;0.70;0.70;;;9.70;99.90;;;;;;4995940;28;20535;-83
2024/02/06 11:04:04;;;;;;;7.53;4.00;;;9.80;99.90;;;;;;4996124;28;20947;-83
2024/02/06 11:06:38;;;;;;;5.40;3.40;;;9.80;99.90;;;;;;5001625;28;20454;-83
2024/02/06 11:09:11;;;;;;;6.93;2.77;;;9.80;99.90;;;;;;5000789;28;20486;-83
2024/02/06 11:11:39;;;;;;;2.07;1.33;;;9.90;99.90;;;;;;4991601;28;20472;-82
2024/02/06 11:14:11;;;;;;;0.73;0.73;;;9.90;99.90;;;;;;4997004;28;20444;-83
2024/02/06 11:16:49;;;;;;;3.25;2.05;;;9.90;99.90;;;;;;4998018;28;20869;-82
2024/02/06 11:19:26;;;;;;;5.88;2.60;;;9.90;99.90;;;;;;4996961;28;20221;-83
2024/02/06 11:22:00;;;;;;;1.23;1.20;;;9.90;99.90;;;;;;5000835;28;20291;-83
2024/02/06 11:24:29;;;;;;;1.80;1.67;;;9.90;99.90;;;;;;4996481;28;20504;-84
2024/02/06 11:26:57;;;;;;;1.33;1.23;;;9.90;99.90;;;;;;4997412;28;20451;-84
2024/02/06 11:29:25;;;;;;;4.27;2.33;;;10.00;99.90;;;;;;4990532;28;20474;-83
2024/02/06 11:31:52;;;;;;;9.33;2.67;;;10.00;99.90;;;;;;4993207;28;20568;-83
2024/02/06 11:34:19;;;;;;;2.07;1.70;;;10.00;99.90;;;;;;4996653;28;20445;-83
2024/02/06 11:36:47;;;;;;;8.43;2.50;;;10.00;99.90;;;;;;5003068;28;20533;-83
2024/02/06 11:39:15;;;;;;;1.87;1.77;;;9.90;99.90;;;;;;5000981;28;20499;-81
2024/02/06 11:41:42;;;;;;;2.33;1.43;;;9.80;99.90;;;;;;5011120;28;20463;-80
2024/02/06 11:44:11;;;;;;;2.27;2.10;;;9.70;99.90;;;;;;5015961;28;20424;-81
2024/02/06 11:46:44;;;;;;;2.30;2.20;;;9.60;99.90;;;;;;4999819;28;20463;-84
2024/02/06 11:49:11;;;;;;;2.97;2.57;;;9.60;99.90;;;;;;4995889;28;20523;-83
2024/02/06 11:51:39;;;;;;;1.57;1.43;;;9.50;99.90;;;;;;4995948;28;20472;-83
2024/02/06 11:54:13;;;;;;;2.73;2.50;;;9.50;99.90;;;;;;5000170;28;20947;-83
2024/02/06 11:56:40;;;;;;;7.30;2.73;;;9.50;99.90;;;;;;4997885;28;20523;-84
2024/02/06 11:59:08;;;;;;;3.10;2.35;;;9.60;99.90;;;;;;4998297;28;20475;-83
2024/02/06 12:01:35;;;;;;;1.25;1.15;;;9.60;99.90;;;;;;4999024;28;20197;-83
2024/02/06 12:04:05;;;;;;;2.30;1.80;;;9.70;99.90;;;;;;5003806;28;20621;-81
2024/02/06 12:06:32;;;;;;;1.35;1.25;;;9.70;99.90;;;;;;4998359;28;20452;-84
2024/02/06 12:09:03;;;;;;;2.63;2.53;;;9.70;99.90;;;;;;4998459;28;20239;-83
2024/02/06 12:11:32;;;;;;;2.43;2.20;;;9.70;99.90;;;;;;4989177;28;20487;-81
2024/02/06 12:13:59;;;;;;;2.43;1.87;;;9.80;99.90;;;;;;4998310;28;20982;-84
2024/02/06 12:16:25;;;;;;;1.57;1.27;;;9.80;99.90;;;;;;5001275;28;20440;-84
2024/02/06 12:18:53;;;;;;;4.50;3.28;;;9.80;99.90;;;;;;5002081;28;20540;-83
2024/02/06 12:21:25;;;;;;;2.60;2.40;;;9.80;99.90;;;;;;5002140;28;20212;-84
2024/02/06 12:24:02;;;;;;;3.93;2.23;;;9.80;99.90;;;;;;5005901;28;20467;-83
2024/02/06 12:26:30;;;;;;;5.13;3.07;;;9.90;99.90;;;;;;5002998;28;20436;-83
2024/02/06 12:29:02;;;;;;;5.23;2.30;;;9.90;99.90;;;;;;4999214;28;21059;-82
2024/02/06 12:31:29;;;;;;;10.43;2.33;;;10.00;99.90;;;;;;4994237;28;20987;-82
2024/02/06 12:33:56;;;;;;;2.35;1.75;;;10.00;99.90;;;;;;5004989;28;20455;-84
2024/02/06 12:36:25;;;;;;;7.57;2.83;;;10.10;99.90;;;;;;5004458;28;20730;-80
2024/02/06 12:38:53;;;;;;;5.27;4.00;;;10.20;99.90;;;;;;5007502;28;20464;-83
2024/02/06 12:41:19;;;;;;;2.43;1.87;;;10.20;99.90;;;;;;5002096;28;20436;-83
2024/02/06 12:43:50;;;;;;;1.43;1.33;;;10.30;99.90;;;;;;5001891;28;20622;-83
2024/02/06 12:46:17;;;;;;;1.83;1.73;;;10.40;99.90;;;;;;5006584;28;20482;-84
2024/02/06 12:48:44;;;;;;;2.60;1.33;;;10.50;99.90;;;;;;5001996;28;20543;-83
2024/02/06 12:51:11;;;;;;;2.40;2.20;;;10.50;99.90;;;;;;5002169;28;20571;-83
2024/02/06 12:53:40;;;;;;;2.33;1.93;;;10.60;99.90;;;;;;5002693;28;20456;-83
2024/02/06 12:56:07;;;;;;;2.80;1.63;;;10.70;99.90;;;;;;5000118;28;20458;-79